Time;durP1;ratioP1;P1;durP2;ratioP2;P2;SDS_P1;SDS_P2;PMS_P1;PMS_P2;Temp;Humidity;BMP_temperature;BMP_pressure;BME280_temperature;BME280_humidity;BME280_pressure;Samples;Min_cycle;Max_cycle;Signal;HPM_P1;HPM_P2
2023/04/04 00:01:41;;;;;;;6.25;2.00;;;21.20;99.90;;;;;;4995788;28;20227;-85
2023/04/04 00:04:12;;;;;;;7.57;2.20;;;21.30;99.90;;;;;;5007624;28;20228;-85
2023/04/04 00:06:46;;;;;;;4.38;1.75;;;21.40;99.90;;;;;;4996006;28;20196;-87
2023/04/04 00:09:17;;;;;;;7.72;2.20;;;21.60;99.90;;;;;;4982603;28;20207;-86
2023/04/04 00:11:49;;;;;;;6.72;2.20;;;21.60;99.90;;;;;;4982346;28;20679;-85
2023/04/04 00:14:20;;;;;;;8.50;1.83;;;21.80;99.90;;;;;;4994861;28;20203;-88
2023/04/04 00:16:51;;;;;;;4.43;1.30;;;22.00;99.90;;;;;;4995810;28;20242;-89
2023/04/04 00:19:22;;;;;;;8.50;1.50;;;22.20;99.90;;;;;;4990456;28;20203;-87
2023/04/04 00:21:55;;;;;;;6.95;2.17;;;22.30;99.90;;;;;;4987038;28;20203;-87
2023/04/04 00:24:26;;;;;;;4.50;1.42;;;22.50;99.90;;;;;;4984778;28;20612;-88
2023/04/04 00:26:57;;;;;;;7.18;2.17;;;22.60;99.90;;;;;;4987674;28;20211;-84
2023/04/04 00:29:28;;;;;;;5.63;1.80;;;22.70;99.90;;;;;;4990643;28;20212;-86
2023/04/04 00:32:00;;;;;;;4.95;1.60;;;22.80;99.90;;;;;;4986547;28;20699;-86
2023/04/04 00:34:31;;;;;;;9.65;1.80;;;22.80;99.90;;;;;;4990045;28;20202;-82
2023/04/04 00:37:06;;;;;;;3.60;1.40;;;22.90;99.90;;;;;;4992268;28;20208;-87
2023/04/04 00:39:37;;;;;;;3.80;1.48;;;23.00;99.90;;;;;;4995245;28;20199;-86
2023/04/04 00:42:08;;;;;;;5.80;1.65;;;23.20;99.90;;;;;;4995874;28;20203;-86
2023/04/04 00:44:39;;;;;;;7.13;1.40;;;23.30;99.90;;;;;;4996130;28;20219;-88
2023/04/04 00:47:10;;;;;;;6.57;1.80;;;23.30;99.90;;;;;;4995044;28;20192;-87
2023/04/04 00:49:41;;;;;;;3.58;1.20;;;23.40;99.90;;;;;;4995405;28;20207;-85
2023/04/04 00:52:14;;;;;;;5.85;1.05;;;23.50;99.90;;;;;;4995159;28;20226;-88
2023/04/04 00:54:45;;;;;;;7.00;1.58;;;23.50;99.90;;;;;;4995278;28;20191;-86
2023/04/04 00:57:16;;;;;;;7.97;1.55;;;23.60;99.90;;;;;;4995146;28;20207;-87
2023/04/04 00:59:50;;;;;;;3.85;0.90;;;23.60;99.90;;;;;;4995027;28;20230;-82
2023/04/04 01:02:21;;;;;;;5.10;0.90;;;23.70;99.90;;;;;;4994708;28;20282;-86
2023/04/04 01:04:53;;;;;;;5.35;0.90;;;23.90;99.90;;;;;;4995072;28;20547;-86
2023/04/04 01:07:26;;;;;;;6.07;1.08;;;24.00;99.90;;;;;;4995065;28;20192;-89
2023/04/04 01:10:00;;;;;;;3.25;0.82;;;24.10;99.90;;;;;;4995361;28;20200;-86
2023/04/04 01:12:31;;;;;;;3.55;0.90;;;24.20;99.90;;;;;;4995671;28;20216;-88
2023/04/04 01:15:02;;;;;;;4.78;1.00;;;24.10;99.90;;;;;;4994789;28;20204;-86
2023/04/04 01:17:34;;;;;;;4.38;1.00;;;24.10;99.90;;;;;;4994843;28;20196;-87
2023/04/04 01:20:08;;;;;;;4.70;1.00;;;24.10;99.90;;;;;;4995283;28;20191;-88
2023/04/04 01:22:44;;;;;;;6.65;1.23;;;24.30;99.90;;;;;;4995304;28;20198;-88
2023/04/04 01:25:16;;;;;;;4.45;1.10;;;24.40;99.90;;;;;;4995192;28;20191;-85
2023/04/04 01:27:49;;;;;;;2.80;1.00;;;24.50;99.90;;;;;;4994789;28;20250;-87
2023/04/04 01:30:21;;;;;;;5.70;1.10;;;24.60;99.90;;;;;;4994965;28;20188;-85
2023/04/04 01:32:58;;;;;;;5.60;1.40;;;24.50;99.90;;;;;;4994774;28;20226;-88
2023/04/04 01:35:35;;;;;;;4.38;1.23;;;24.10;99.90;;;;;;4994797;28;20202;-89
2023/04/04 01:38:16;;;;;;;7.03;1.20;;;23.90;99.90;;;;;;4995179;28;20202;-88
2023/04/04 01:40:50;;;;;;;3.53;0.90;;;23.70;99.90;;;;;;4994914;28;20246;-88
2023/04/04 01:43:23;;;;;;;6.90;0.85;;;23.50;99.90;;;;;;4994581;28;20643;-85
2023/04/04 01:45:54;;;;;;;3.15;0.80;;;23.40;99.90;;;;;;4994674;28;20198;-88
2023/04/04 01:48:25;;;;;;;3.67;0.70;;;23.20;99.90;;;;;;4994625;28;20191;-87
2023/04/04 01:50:57;;;;;;;4.30;0.80;;;23.10;99.90;;;;;;4994518;28;20200;-88
2023/04/04 01:53:28;;;;;;;4.55;1.40;;;23.00;99.90;;;;;;4994215;28;20227;-87
2023/04/04 01:55:59;;;;;;;3.47;0.80;;;23.10;99.90;;;;;;4994414;28;20202;-87
2023/04/04 01:58:32;;;;;;;5.57;0.75;;;23.40;99.90;;;;;;4993885;28;20195;-86
2023/04/04 02:01:03;;;;;;;4.18;0.50;;;23.80;99.90;;;;;;4994162;28;20207;-87
2023/04/04 02:03:34;;;;;;;2.95;0.43;;;23.80;99.90;;;;;;4975568;28;20251;-86
2023/04/04 02:06:06;;;;;;;4.97;0.70;;;23.80;99.90;;;;;;4974799;28;20193;-89
2023/04/04 02:08:40;;;;;;;3.30;0.68;;;23.80;99.90;;;;;;4975095;28;20633;-89
2023/04/04 02:11:11;;;;;;;2.47;0.57;;;23.80;99.90;;;;;;4976626;28;20192;-88
2023/04/04 02:13:44;;;;;;;3.20;0.60;;;23.90;99.90;;;;;;4978802;28;20204;-88
2023/04/04 02:16:15;;;;;;;2.70;0.50;;;23.80;99.90;;;;;;4979000;28;20203;-87
2023/04/04 02:18:46;;;;;;;3.45;0.73;;;23.90;99.90;;;;;;4989303;28;20215;-78
2023/04/04 02:21:17;;;;;;;4.07;0.50;;;23.80;99.90;;;;;;4987835;28;20208;-82
2023/04/04 02:23:50;;;;;;;4.15;0.90;;;23.80;99.90;;;;;;4985277;28;20199;-79
2023/04/04 02:26:21;;;;;;;9.57;0.93;;;24.00;99.90;;;;;;4985548;28;20200;-85
2023/04/04 02:28:54;;;;;;;4.93;0.70;;;24.00;99.90;;;;;;4974452;28;20192;-85
2023/04/04 02:31:25;;;;;;;2.35;0.57;;;24.00;99.90;;;;;;4982379;28;20199;-88
2023/04/04 02:33:56;;;;;;;3.60;0.68;;;24.00;99.90;;;;;;4988078;28;21677;-90
2023/04/04 02:36:27;;;;;;;4.20;1.42;;;23.80;99.90;;;;;;4989248;28;20226;-90
2023/04/04 02:38:59;;;;;;;3.47;0.85;;;23.60;99.90;;;;;;4979387;28;20195;-90
2023/04/04 02:41:30;;;;;;;4.97;0.73;;;23.40;99.90;;;;;;4982429;28;20267;-90
2023/04/04 02:44:03;;;;;;;3.30;0.82;;;23.30;99.90;;;;;;4980433;28;20207;-90
2023/04/04 02:46:34;;;;;;;4.30;0.88;;;23.20;99.90;;;;;;4985319;28;20199;-90
2023/04/04 02:49:05;;;;;;;6.85;0.70;;;23.10;99.90;;;;;;4993598;28;20209;-89
2023/04/04 02:51:36;;;;;;;4.18;0.80;;;23.00;99.90;;;;;;4992818;28;20188;-81
2023/04/04 02:54:07;;;;;;;3.30;0.60;;;22.90;99.90;;;;;;4991691;28;20200;-90
2023/04/04 02:56:39;;;;;;;7.32;0.80;;;22.80;99.90;;;;;;4992731;28;20196;-90
2023/04/04 02:59:12;;;;;;;3.13;0.70;;;22.80;99.90;;;;;;4993665;28;20226;-90
2023/04/04 03:01:43;;;;;;;4.75;0.70;;;22.70;99.90;;;;;;4990783;28;20239;-78
2023/04/04 03:04:15;;;;;;;2.42;0.60;;;22.70;99.90;;;;;;4974587;28;20204;-89
2023/04/04 03:06:47;;;;;;;3.80;0.73;;;22.60;99.90;;;;;;4980522;28;20200;-89
2023/04/04 03:09:18;;;;;;;3.15;0.80;;;22.60;99.90;;;;;;4987322;28;20192;-90
2023/04/04 03:11:49;;;;;;;2.75;0.70;;;22.60;99.90;;;;;;4991036;28;20219;-88
2023/04/04 03:14:22;;;;;;;2.85;0.70;;;22.60;99.90;;;;;;4995326;28;20573;-88
2023/04/04 03:16:53;;;;;;;4.43;0.70;;;22.70;99.90;;;;;;4997006;28;20192;-86
2023/04/04 03:19:25;;;;;;;4.50;0.60;;;22.90;99.90;;;;;;4996341;28;20187;-84
2023/04/04 03:21:56;;;;;;;3.85;0.63;;;23.00;99.90;;;;;;4991753;28;20231;-86
2023/04/04 03:24:27;;;;;;;2.45;1.05;;;23.30;99.90;;;;;;4992847;28;20215;-90
2023/04/04 03:26:59;;;;;;;5.82;0.70;;;23.70;99.90;;;;;;4998504;28;20258;-88
2023/04/04 03:29:32;;;;;;;2.97;0.55;;;24.00;99.90;;;;;;4984454;28;20271;-83
2023/04/04 03:32:03;;;;;;;2.95;0.40;;;24.10;99.90;;;;;;4993747;28;20227;-87
2023/04/04 03:34:34;;;;;;;3.60;0.60;;;24.10;99.90;;;;;;4987185;28;20204;-86
2023/04/04 03:37:05;;;;;;;6.25;0.75;;;24.20;99.90;;;;;;4988544;28;20202;-86
2023/04/04 03:39:36;;;;;;;6.25;0.70;;;24.40;99.90;;;;;;4993981;28;20196;-88
2023/04/04 03:42:07;;;;;;;5.32;0.60;;;24.50;99.90;;;;;;4991829;28;20290;-84
2023/04/04 03:44:43;;;;;;;2.08;0.40;;;24.60;99.90;;;;;;4997199;28;20594;-85
2023/04/04 03:47:15;;;;;;;3.58;0.50;;;24.40;99.90;;;;;;4996791;28;20216;-89
2023/04/04 03:49:46;;;;;;;3.78;0.65;;;24.20;99.90;;;;;;4996978;28;20187;-89
2023/04/04 03:52:17;;;;;;;6.53;0.75;;;24.10;99.90;;;;;;4997073;28;20220;-91
2023/04/04 03:54:48;;;;;;;6.28;0.70;;;24.00;99.90;;;;;;4996808;28;20192;-88
2023/04/04 03:57:19;;;;;;;3.35;0.60;;;24.00;99.90;;;;;;4996701;28;20196;-83
2023/04/04 03:59:52;;;;;;;3.67;0.70;;;24.00;99.90;;;;;;4987717;28;20242;-88
2023/04/04 04:02:23;;;;;;;4.50;0.60;;;23.80;99.90;;;;;;4982147;28;20235;-87
2023/04/04 04:04:54;;;;;;;3.80;0.73;;;23.70;99.90;;;;;;4975936;28;20196;-89
2023/04/04 04:07:25;;;;;;;5.82;0.98;;;23.60;99.90;;;;;;4978588;28;20570;-86
2023/04/04 04:09:57;;;;;;;3.35;0.75;;;23.40;99.90;;;;;;4978528;28;20193;-88
2023/04/04 04:12:28;;;;;;;4.53;0.77;;;23.30;99.90;;;;;;4976053;28;20689;-84
2023/04/04 04:15:01;;;;;;;5.43;0.65;;;23.30;99.90;;;;;;4976978;28;20215;-85
2023/04/04 04:17:32;;;;;;;4.35;0.70;;;23.40;99.90;;;;;;4961833;28;20215;-86
2023/04/04 04:20:03;;;;;;;7.35;1.02;;;23.30;99.90;;;;;;4957119;28;20197;-87
2023/04/04 04:22:34;;;;;;;6.30;0.63;;;23.30;99.90;;;;;;4969822;28;20200;-79
2023/04/04 04:25:05;;;;;;;3.88;0.57;;;23.30;99.90;;;;;;4974328;28;20203;-86
2023/04/04 04:27:37;;;;;;;5.75;0.70;;;23.30;99.90;;;;;;4957649;29;20564;-89
2023/04/04 04:30:11;;;;;;;5.22;0.60;;;23.60;99.90;;;;;;4959860;28;20193;-86
2023/04/04 04:32:42;;;;;;;3.65;0.60;;;23.70;99.90;;;;;;4964681;28;20671;-87
2023/04/04 04:35:14;;;;;;;5.00;0.75;;;23.70;99.90;;;;;;4975684;28;20204;-88
2023/04/04 04:37:45;;;;;;;2.50;0.50;;;23.60;99.90;;;;;;4976617;28;20193;-88
2023/04/04 04:40:16;;;;;;;6.00;0.75;;;23.50;99.90;;;;;;4976344;28;20188;-88
2023/04/04 04:42:50;;;;;;;9.73;4.70;;;23.40;99.90;;;;;;4976293;28;20197;-88
2023/04/04 04:45:23;;;;;;;6.25;1.38;;;23.20;99.90;;;;;;4976026;28;20245;-84
2023/04/04 04:47:54;;;;;;;3.30;0.70;;;23.20;99.90;;;;;;4976952;28;20644;-89
2023/04/04 04:50:26;;;;;;;1.85;0.70;;;23.30;99.90;;;;;;4974349;28;20203;-88
2023/04/04 04:52:57;;;;;;;4.35;0.60;;;23.50;99.90;;;;;;4975320;28;20224;-87
2023/04/04 04:55:28;;;;;;;4.82;0.60;;;23.70;99.90;;;;;;4976445;28;20208;-88
2023/04/04 04:57:59;;;;;;;3.65;0.82;;;23.80;99.90;;;;;;4975567;28;20192;-88
2023/04/04 05:00:32;;;;;;;3.58;0.57;;;23.80;99.90;;;;;;4976898;28;20196;-90
2023/04/04 05:03:05;;;;;;;3.92;1.10;;;24.00;99.90;;;;;;4990875;28;20235;-88
2023/04/04 05:05:37;;;;;;;7.60;0.70;;;24.00;99.90;;;;;;4995356;28;20219;-88
2023/04/04 05:08:08;;;;;;;3.25;0.57;;;24.10;99.90;;;;;;4993887;28;20200;-89
2023/04/04 05:10:39;;;;;;;5.85;0.85;;;24.10;99.90;;;;;;4993579;28;20199;-86
2023/04/04 05:13:11;;;;;;;4.47;0.60;;;24.00;99.90;;;;;;4995030;28;20231;-90
2023/04/04 05:15:44;;;;;;;5.63;0.63;;;23.90;99.90;;;;;;4995490;28;20195;-85
2023/04/04 05:18:15;;;;;;;2.25;0.60;;;23.80;99.90;;;;;;4995882;28;20581;-85
2023/04/04 05:20:53;;;;;;;3.67;0.60;;;23.80;99.90;;;;;;4991565;28;20192;-90
2023/04/04 05:23:26;;;;;;;4.95;0.70;;;23.70;99.90;;;;;;4975860;28;20200;-88
2023/04/04 05:25:59;;;;;;;3.17;0.60;;;23.70;99.90;;;;;;4983391;28;20286;-88
2023/04/04 05:28:30;;;;;;;5.57;0.77;;;23.60;99.90;;;;;;4991522;28;20206;-83
2023/04/04 05:31:03;;;;;;;3.13;0.65;;;23.50;99.90;;;;;;4982890;28;20211;-85
2023/04/04 05:33:34;;;;;;;4.00;0.60;;;23.40;99.90;;;;;;4993686;28;20215;-87
2023/04/04 05:36:05;;;;;;;3.80;0.80;;;23.20;99.90;;;;;;4994799;28;20196;-87
2023/04/04 05:38:36;;;;;;;5.78;0.80;;;23.10;99.90;;;;;;4993963;28;20195;-84
2023/04/04 05:41:07;;;;;;;6.65;0.70;;;23.00;99.90;;;;;;4994764;28;20196;-89
2023/04/04 05:43:39;;;;;;;6.57;0.68;;;23.00;99.90;;;;;;4993391;28;20194;-88
2023/04/04 05:46:12;;;;;;;5.78;0.90;;;23.00;99.90;;;;;;4995010;28;20209;-86
2023/04/04 05:48:43;;;;;;;4.32;0.63;;;22.90;99.90;;;;;;4991182;28;20667;-90
2023/04/04 05:51:14;;;;;;;2.80;0.57;;;22.80;99.90;;;;;;4985208;28;20192;-89
2023/04/04 05:53:46;;;;;;;5.07;0.77;;;22.80;99.90;;;;;;4994521;28;20212;-87
2023/04/04 05:56:17;;;;;;;4.68;0.60;;;22.80;99.90;;;;;;4995985;28;20191;-91
2023/04/04 05:58:48;;;;;;;10.40;1.02;;;22.80;99.90;;;;;;4994281;28;20227;-89
2023/04/04 06:01:21;;;;;;;4.75;0.60;;;22.70;99.90;;;;;;4991788;28;20214;-85
2023/04/04 06:03:52;;;;;;;3.45;0.60;;;22.70;99.90;;;;;;4988357;28;20203;-88
2023/04/04 06:06:24;;;;;;;7.57;0.98;;;22.80;99.90;;;;;;4983919;28;20199;-90
2023/04/04 06:08:55;;;;;;;11.38;1.23;;;22.90;99.90;;;;;;4984919;28;20206;-87
2023/04/04 06:11:26;;;;;;;3.00;0.60;;;23.00;99.90;;;;;;4990414;28;20227;-87
2023/04/04 06:13:57;;;;;;;6.43;0.90;;;23.00;99.90;;;;;;4992659;28;20223;-89
2023/04/04 06:16:30;;;;;;;6.63;0.70;;;22.90;99.90;;;;;;4990773;28;20203;-89
2023/04/04 06:19:02;;;;;;;6.50;0.70;;;22.80;99.90;;;;;;4989756;28;20200;-91
2023/04/04 06:21:33;;;;;;;4.07;0.80;;;22.80;99.90;;;;;;4992816;28;20542;-88
2023/04/04 06:24:04;;;;;;;5.72;0.60;;;22.70;99.90;;;;;;4992207;28;20206;-91
2023/04/04 06:26:35;;;;;;;5.43;0.75;;;22.80;99.90;;;;;;4994131;28;20196;-88
2023/04/04 06:29:06;;;;;;;7.03;0.90;;;22.80;99.90;;;;;;4996362;28;20275;-89
2023/04/04 06:31:39;;;;;;;5.10;0.63;;;22.70;99.90;;;;;;4994781;28;20195;-88
2023/04/04 06:34:14;;;;;;;4.35;0.50;;;22.70;99.90;;;;;;4992125;28;20322;-90
2023/04/04 06:36:45;;;;;;;3.75;0.60;;;22.70;99.90;;;;;;4987074;28;20580;-89
2023/04/04 06:39:17;;;;;;;4.30;0.70;;;22.70;99.90;;;;;;4996153;28;20282;-90
2023/04/04 06:41:48;;;;;;;4.43;0.70;;;22.60;99.90;;;;;;4995067;28;20192;-86
2023/04/04 06:44:19;;;;;;;4.82;0.80;;;22.60;99.90;;;;;;4995529;28;20323;-79
2023/04/04 06:46:52;;;;;;;5.55;0.80;;;22.60;99.90;;;;;;4998831;28;20196;-92
2023/04/04 06:49:24;;;;;;;6.47;0.70;;;22.60;99.90;;;;;;4998057;28;20191;-84
2023/04/04 06:51:55;;;;;;;2.90;0.60;;;22.50;99.90;;;;;;4998040;28;20191;-91
2023/04/04 06:54:26;;;;;;;4.15;0.75;;;22.40;99.90;;;;;;4983520;28;20215;-92
2023/04/04 06:56:57;;;;;;;4.38;0.70;;;22.40;99.90;;;;;;4978707;28;20200;-91
2023/04/04 06:59:28;;;;;;;4.15;0.60;;;22.30;99.90;;;;;;4979073;28;20220;-90
2023/04/04 07:02:02;;;;;;;6.20;0.70;;;22.20;99.90;;;;;;4985005;28;20235;-92
2023/04/04 07:04:34;;;;;;;3.38;0.60;;;22.20;99.90;;;;;;4999151;28;20203;-90
2023/04/04 07:07:05;;;;;;;5.00;0.70;;;22.20;99.90;;;;;;4998019;28;20203;-91
2023/04/04 07:09:36;;;;;;;2.67;0.70;;;22.20;99.90;;;;;;4995654;28;20290;-92
2023/04/04 07:12:07;;;;;;;6.35;0.80;;;22.20;99.90;;;;;;4978396;28;20632;-88
2023/04/04 07:14:41;;;;;;;3.05;0.70;;;22.10;99.90;;;;;;4978948;28;20220;-79
2023/04/04 07:17:14;;;;;;;5.28;0.80;;;22.10;99.90;;;;;;4978328;28;20203;-91
2023/04/04 07:19:45;;;;;;;4.90;1.15;;;22.10;99.90;;;;;;4978230;28;20192;-92
2023/04/04 07:22:16;;;;;;;4.22;0.80;;;22.10;99.90;;;;;;4978080;28;20203;-91
2023/04/04 07:24:47;;;;;;;7.32;0.70;;;22.00;99.90;;;;;;4978499;28;20192;-92
2023/04/04 07:27:18;;;;;;;3.15;0.57;;;22.00;99.90;;;;;;4978108;28;20202;-89
2023/04/04 07:29:50;;;;;;;4.82;0.88;;;21.90;99.90;;;;;;4978713;28;20197;-90
2023/04/04 07:32:23;;;;;;;4.43;0.77;;;21.90;99.90;;;;;;4978964;28;20193;-93
2023/04/04 07:34:55;;;;;;;6.20;0.70;;;21.90;99.90;;;;;;4978412;28;20692;-88
2023/04/04 07:37:26;;;;;;;5.10;0.60;;;21.80;99.90;;;;;;4986865;28;20206;-91
2023/04/04 07:39:57;;;;;;;8.20;0.95;;;21.80;99.90;;;;;;4999186;28;20196;-92
2023/04/04 07:42:29;;;;;;;7.53;0.90;;;21.70;99.90;;;;;;4997783;28;20563;-85
2023/04/04 07:45:01;;;;;;;6.05;0.80;;;21.70;99.90;;;;;;4993600;28;20200;-91
2023/04/04 07:47:34;;;;;;;6.60;0.80;;;21.70;99.90;;;;;;4995538;28;20195;-88
2023/04/04 07:50:05;;;;;;;2.83;0.70;;;21.60;99.90;;;;;;4992392;28;20199;-86
2023/04/04 07:52:36;;;;;;;3.40;0.70;;;21.60;99.90;;;;;;4995539;28;20209;-93
2023/04/04 07:55:08;;;;;;;2.13;0.60;;;21.50;99.90;;;;;;4996981;28;20705;-92
2023/04/04 07:57:41;;;;;;;4.60;0.70;;;21.50;99.90;;;;;;4994158;28;20206;-92
2023/04/04 08:00:13;;;;;;;4.75;0.60;;;21.40;99.90;;;;;;4995121;28;20204;-93
2023/04/04 08:02:46;;;;;;;5.25;0.90;;;21.40;99.90;;;;;;4994265;28;20235;-89
2023/04/04 08:05:17;;;;;;;5.88;0.70;;;21.40;99.90;;;;;;4992607;28;20655;-93
2023/04/04 08:07:49;;;;;;;4.60;0.60;;;21.30;99.90;;;;;;4994547;28;20286;-92
2023/04/04 08:10:20;;;;;;;3.30;0.75;;;21.20;99.90;;;;;;4993072;28;20191;-88
2023/04/04 08:12:52;;;;;;;5.20;0.80;;;21.20;99.90;;;;;;4996631;28;20250;-90
2023/04/04 08:15:23;;;;;;;2.50;0.60;;;21.10;99.90;;;;;;4986042;28;20219;-79
2023/04/04 08:17:57;;;;;;;5.97;0.80;;;21.10;99.90;;;;;;4989914;28;20212;-91
2023/04/04 08:20:28;;;;;;;1.90;0.70;;;21.10;99.90;;;;;;4996629;28;20659;-87
2023/04/04 08:22:59;;;;;;;2.38;0.70;;;21.10;99.90;;;;;;4989567;28;20203;-91
2023/04/04 08:25:30;;;;;;;4.88;1.02;;;21.00;99.90;;;;;;4983955;28;20243;-92
2023/04/04 08:28:03;;;;;;;4.05;0.93;;;21.00;99.90;;;;;;4996158;28;20199;-89
2023/04/04 08:30:34;;;;;;;3.53;0.73;;;21.00;99.90;;;;;;4993416;28;20200;-91
2023/04/04 08:33:07;;;;;;;3.38;0.90;;;20.90;99.90;;;;;;4992272;28;20215;-91
2023/04/04 08:35:39;;;;;;;2.17;0.60;;;20.90;99.90;;;;;;4995173;28;20226;-86
2023/04/04 08:38:10;;;;;;;3.28;0.73;;;20.80;99.90;;;;;;4996107;28;20655;-85
2023/04/04 08:40:42;;;;;;;7.35;1.00;;;20.80;99.90;;;;;;4990690;28;20192;-91
2023/04/04 08:43:14;;;;;;;3.95;0.82;;;20.80;99.90;;;;;;4986266;28;20203;-94
2023/04/04 08:45:46;;;;;;;3.22;1.05;;;20.70;99.90;;;;;;4991084;28;20196;-91
2023/04/04 08:48:21;;;;;;;2.72;0.90;;;20.70;99.90;;;;;;4985234;28;20243;-91
2023/04/04 08:50:56;;;;;;;3.00;0.80;;;20.60;99.90;;;;;;4995317;28;20198;-89
2023/04/04 08:53:28;;;;;;;3.08;0.90;;;20.60;99.90;;;;;;4991827;28;20659;-91
2023/04/04 08:56:01;;;;;;;3.90;0.75;;;20.60;99.90;;;;;;4995599;28;20226;-89
2023/04/04 08:58:32;;;;;;;2.78;0.80;;;20.50;99.90;;;;;;4995197;28;20276;-89
2023/04/04 09:01:03;;;;;;;5.75;1.40;;;20.50;99.90;;;;;;4993828;28;20206;-90
2023/04/04 09:03:37;;;;;;;6.38;1.38;;;20.40;99.90;;;;;;4994779;28;20241;-83
2023/04/04 09:06:10;;;;;;;7.45;1.60;;;20.40;99.90;;;;;;4994684;28;20674;-90
2023/04/04 09:08:41;;;;;;;8.93;1.98;;;20.30;99.90;;;;;;4994983;28;20200;-90
2023/04/04 09:11:13;;;;;;;7.03;2.20;;;20.30;99.90;;;;;;4988229;28;20668;-87
2023/04/04 09:13:46;;;;;;;5.72;2.15;;;20.30;99.90;;;;;;4980215;28;20204;-90
2023/04/04 09:16:18;;;;;;;5.32;1.85;;;20.20;99.90;;;;;;4995459;28;20199;-92
2023/04/04 09:18:51;;;;;;;5.35;1.90;;;20.20;99.90;;;;;;4994091;28;20196;-91
2023/04/04 09:21:22;;;;;;;2.83;1.50;;;20.20;99.90;;;;;;4994123;28;21762;-89
2023/04/04 09:24:02;;;;;;;5.65;1.60;;;20.20;99.90;;;;;;4990755;28;20199;-89
2023/04/04 09:26:48;;;;;;;4.20;1.35;;;20.10;99.90;;;;;;4994881;28;20203;-92
2023/04/04 09:29:21;;;;;;;7.68;1.50;;;20.10;99.90;;;;;;4991635;28;20200;-92
2023/04/04 09:31:53;;;;;;;6.97;1.73;;;20.10;99.90;;;;;;4994192;28;20200;-88
2023/04/04 09:34:26;;;;;;;4.63;1.90;;;20.00;99.90;;;;;;4993338;28;20265;-89
2023/04/04 09:36:59;;;;;;;6.65;1.80;;;20.00;99.90;;;;;;4987470;28;20199;-84
2023/04/04 09:39:30;;;;;;;4.03;2.20;;;19.90;99.90;;;;;;4987551;28;20613;-92
2023/04/04 09:42:02;;;;;;;6.78;2.28;;;19.90;99.90;;;;;;4986558;28;20251;-93
2023/04/04 09:44:34;;;;;;;7.28;2.35;;;19.90;99.90;;;;;;4989886;28;20202;-91
2023/04/04 09:47:29;;;;;;;7.40;2.25;;;19.80;99.90;;;;;;4986598;28;20203;-90
2023/04/04 09:50:04;;;;;;;4.63;1.65;;;19.80;99.90;;;;;;4981223;28;20204;-92
2023/04/04 09:52:38;;;;;;;6.22;2.10;;;19.80;99.90;;;;;;4992853;28;20211;-92
2023/04/04 09:55:10;;;;;;;6.55;2.25;;;19.80;99.90;;;;;;4984641;28;20223;-91
2023/04/04 09:57:42;;;;;;;9.73;2.45;;;19.70;99.90;;;;;;4985907;28;20210;-91
2023/04/04 10:00:21;;;;;;;5.00;2.15;;;19.70;99.90;;;;;;4989795;28;20577;-89
2023/04/04 10:02:57;;;;;;;4.25;2.05;;;19.70;99.90;;;;;;4987800;28;20643;-93
2023/04/04 10:05:31;;;;;;;5.53;2.05;;;19.60;99.90;;;;;;4994633;28;20537;-92
2023/04/04 10:08:02;;;;;;;7.45;2.13;;;19.60;99.90;;;;;;4994216;28;20202;-84
2023/04/04 10:10:35;;;;;;;5.47;2.17;;;19.60;99.90;;;;;;4994325;28;20239;-88
2023/04/04 10:13:06;;;;;;;6.32;2.00;;;19.60;99.90;;;;;;4993479;28;20635;-86
2023/04/04 10:15:39;;;;;;;7.07;2.38;;;19.50;99.90;;;;;;4975210;28;20220;-93
2023/04/04 10:18:11;;;;;;;5.90;2.08;;;19.50;99.90;;;;;;4974849;28;20196;-92
2023/04/04 10:20:45;;;;;;;7.28;1.95;;;19.50;99.90;;;;;;4974904;28;20212;-90
2023/04/04 10:23:18;;;;;;;6.88;1.90;;;19.50;99.90;;;;;;4975135;28;20265;-91
2023/04/04 10:25:49;;;;;;;3.80;1.80;;;19.50;99.90;;;;;;4974977;28;20196;-88
2023/04/04 10:28:20;;;;;;;5.65;2.03;;;19.40;99.90;;;;;;4979317;28;20192;-92
2023/04/04 10:30:57;;;;;;;5.57;2.13;;;19.40;99.90;;;;;;4994555;28;20191;-92
2023/04/04 10:33:34;;;;;;;5.95;2.03;;;19.40;99.90;;;;;;4994442;28;20195;-91
2023/04/04 10:36:11;;;;;;;5.68;2.17;;;19.30;99.90;;;;;;4993808;28;20310;-88
2023/04/04 10:38:50;;;;;;;8.18;2.20;;;19.30;99.90;;;;;;4994075;28;20191;-80
2023/04/04 10:41:24;;;;;;;4.78;1.98;;;19.30;99.90;;;;;;4993565;28;20267;-81
2023/04/04 10:44:10;;;;;;;7.95;2.53;;;19.20;99.90;;;;;;4991795;28;20191;-80
2023/04/04 10:46:49;;;;;;;6.43;2.33;;;19.20;99.90;;;;;;4993595;28;20274;-79
2023/04/04 10:49:21;;;;;;;4.90;2.05;;;19.20;99.90;;;;;;4993871;28;20268;-80
2023/04/04 10:51:56;;;;;;;7.90;2.30;;;19.10;99.90;;;;;;4993581;28;20207;-84
2023/04/04 10:54:29;;;;;;;6.50;1.98;;;19.10;99.90;;;;;;4980849;28;20215;-85
2023/04/04 10:57:02;;;;;;;5.53;1.83;;;19.10;99.90;;;;;;4990790;28;20196;-80
2023/04/04 10:59:33;;;;;;;5.55;1.90;;;19.10;99.90;;;;;;4978912;28;20222;-85
2023/04/04 11:02:05;;;;;;;7.05;2.08;;;19.10;99.90;;;;;;4974505;28;20319;-89
2023/04/04 11:04:41;;;;;;;6.68;2.03;;;19.10;99.90;;;;;;4974695;28;20204;-90
2023/04/04 11:07:17;;;;;;;5.25;1.83;;;19.00;99.90;;;;;;4974633;28;20559;-89
2023/04/04 11:10:15;;;;;;;6.40;2.00;;;19.00;99.90;;;;;;4974558;28;20207;-91
2023/04/04 11:12:48;;;;;;;4.32;1.73;;;18.90;99.90;;;;;;4981677;28;20231;-90
2023/04/04 11:15:24;;;;;;;6.10;1.85;;;19.00;99.90;;;;;;4993894;28;20588;-91
2023/04/04 11:18:03;;;;;;;6.68;1.77;;;19.00;99.90;;;;;;4993921;28;20191;-90
2023/04/04 11:20:37;;;;;;;7.05;1.75;;;19.00;99.90;;;;;;4994108;28;20195;-89
2023/04/04 11:23:19;;;;;;;4.97;1.45;;;18.90;99.90;;;;;;4993944;28;20195;-88
2023/04/04 11:25:59;;;;;;;5.60;1.73;;;18.90;99.90;;;;;;4988116;28;20215;-91
2023/04/04 11:28:45;;;;;;;5.47;1.58;;;18.90;99.90;;;;;;4982373;28;20230;-90
2023/04/04 11:31:36;;;;;;;3.67;1.45;;;18.90;99.90;;;;;;4994738;28;20207;-90
2023/04/04 11:34:09;;;;;;;5.65;2.00;;;18.90;99.90;;;;;;4993256;28;20681;-84
2023/04/04 11:37:00;;;;;;;7.07;2.00;;;18.90;99.90;;;;;;4997123;28;20187;-89
2023/04/04 11:39:34;;;;;;;4.50;1.38;;;18.80;99.90;;;;;;4986352;28;20233;-92
2023/04/04 11:42:13;;;;;;;8.88;1.85;;;18.80;99.90;;;;;;4995355;28;20290;-89
2023/04/04 11:45:03;;;;;;;3.83;1.73;;;18.80;99.90;;;;;;4991037;28;20195;-89
2023/04/04 11:47:34;;;;;;;4.43;1.70;;;18.80;99.90;;;;;;4996802;28;20191;-91
2023/04/04 11:50:12;;;;;;;4.93;1.70;;;18.80;99.90;;;;;;4977542;28;20645;-92
2023/04/04 11:52:44;;;;;;;3.90;1.48;;;18.80;99.90;;;;;;4977446;28;20192;-92
2023/04/04 11:55:22;;;;;;;6.07;1.70;;;18.80;99.90;;;;;;4987822;28;20262;-92
2023/04/04 11:57:54;;;;;;;4.53;1.70;;;18.70;99.90;;;;;;4982089;28;20194;-92
2023/04/04 12:00:36;;;;;;;6.47;1.90;;;18.70;99.90;;;;;;4987605;28;20294;-86
2023/04/04 12:03:09;;;;;;;4.57;1.70;;;18.70;99.90;;;;;;4979536;28;20691;-91
2023/04/04 12:05:41;;;;;;;6.05;2.00;;;18.70;99.90;;;;;;4977460;28;20560;-93
2023/04/04 12:08:16;;;;;;;4.35;1.80;;;18.60;99.90;;;;;;4977680;28;20210;-89
2023/04/04 12:10:49;;;;;;;7.93;2.22;;;18.60;99.90;;;;;;4977244;28;20199;-91
2023/04/04 12:13:20;;;;;;;5.20;1.80;;;18.60;99.90;;;;;;4991141;28;20196;-92
2023/04/04 12:15:52;;;;;;;5.20;1.98;;;18.60;99.90;;;;;;4995681;28;20215;-91
2023/04/04 12:18:26;;;;;;;7.03;2.20;;;18.60;99.90;;;;;;4990867;28;20210;-90
2023/04/04 12:20:58;;;;;;;6.05;1.98;;;18.50;99.90;;;;;;4989218;28;20204;-88
2023/04/04 12:23:29;;;;;;;8.23;2.55;;;18.50;99.90;;;;;;4993295;28;20210;-88
2023/04/04 12:26:02;;;;;;;6.03;2.20;;;18.50;99.90;;;;;;4996501;28;20202;-90
2023/04/04 12:28:36;;;;;;;6.30;2.10;;;18.50;99.90;;;;;;4996116;28;20200;-93
2023/04/04 12:31:08;;;;;;;6.75;2.40;;;18.50;99.90;;;;;;4994368;28;20254;-91
2023/04/04 12:33:41;;;;;;;8.20;2.35;;;18.40;99.90;;;;;;4994892;28;20246;-89
2023/04/04 12:36:13;;;;;;;7.18;2.42;;;18.40;99.90;;;;;;4995914;28;20705;-92
2023/04/04 12:39:00;;;;;;;4.93;2.42;;;18.40;99.90;;;;;;4994684;28;20216;-86
2023/04/04 12:41:34;;;;;;;6.75;2.70;;;18.40;99.90;;;;;;4996194;28;20198;-92
2023/04/04 12:44:06;;;;;;;5.40;2.25;;;18.40;99.90;;;;;;4992211;28;20729;-84
2023/04/04 12:46:41;;;;;;;8.05;2.63;;;18.40;99.90;;;;;;4982246;28;20282;-91
2023/04/04 12:49:16;;;;;;;5.40;2.33;;;18.30;99.90;;;;;;4995437;28;20202;-89
2023/04/04 12:51:47;;;;;;;8.18;3.10;;;18.30;99.90;;;;;;4988473;28;20203;-91
2023/04/04 12:54:29;;;;;;;6.82;2.67;;;18.30;99.90;;;;;;4989948;28;20208;-91
2023/04/04 12:57:04;;;;;;;7.55;2.55;;;18.30;99.90;;;;;;4978244;28;20219;-92
2023/04/04 12:59:37;;;;;;;7.07;2.65;;;18.30;99.90;;;;;;4986336;28;20282;-89
2023/04/04 13:02:12;;;;;;;6.72;2.65;;;18.20;99.90;;;;;;4995623;28;20242;-92
2023/04/04 13:04:46;;;;;;;5.60;2.20;;;18.20;99.90;;;;;;4995667;28;20274;-89
2023/04/04 13:07:26;;;;;;;6.03;2.40;;;18.20;99.90;;;;;;4994304;28;20191;-82
2023/04/04 13:09:59;;;;;;;4.40;2.05;;;18.20;99.90;;;;;;4992126;28;20192;-87
2023/04/04 13:13:01;;;;;;;5.80;2.10;;;18.20;99.90;;;;;;4995800;28;20250;-90
2023/04/04 13:15:58;;;;;;;7.03;2.60;;;18.20;99.90;;;;;;4995540;28;20211;-93
2023/04/04 13:18:33;;;;;;;4.35;2.17;;;18.20;99.90;;;;;;4951546;28;20208;-85